Kingsgate, Washington
Current Conditions -  °F | °C
As of 1:53 AM on Sunday 25 Jan 2015 (Local Time) from KBFI Reporting Station
Overcast Overcast  
Wind Chill: 57°   Ceiling: 900
Heat Index: 57°   Visibility: 10mi
Dew Point: 52°   Wind: 7mph
Humidity: 83%   Direction: 140°SE
Pressure: 30.22"   Gusts: NA
Location:  47.7179°N, 122.204°W
Report Text: KBFI 250953Z 14006KT 10SM BKN009 OVC015 14/11 A3022 RMK AO2 CIG 007V011 SLP232 T01390111
Loading
Personal Weather Stations






























Interactive Weather Map New forecast layout! Learn more

10-Day Weather Forecast

Advertisements
Track Severe Weather on mobile